Time;durP1;ratioP1;P1;durP2;ratioP2;P2;SDS_P1;SDS_P2;PMS_P1;PMS_P2;Temp;Humidity;BMP_temperature;BMP_pressure;BME280_temperature;BME280_humidity;BME280_pressure;Samples;Min_cycle;Max_cycle;Signal;HPM_P1;HPM_P2
2024/04/03 00:02:19;;;;;;;4.47;1.50;;;;;;;;;;4933364;28;92794;-77
2024/04/03 00:04:44;;;;;;;5.03;1.60;;;;;;;;;;4948023;28;95248;-76
2024/04/03 00:07:10;;;;;;;4.82;1.50;;;;;;;;;;4949360;28;95609;-76
2024/04/03 00:09:35;;;;;;;4.63;1.67;;;;;;;;;;4948634;28;93848;-76
2024/04/03 00:12:01;;;;;;;4.68;1.65;;;;;;;;;;4949844;28;93015;-77
2024/04/03 00:14:26;;;;;;;4.40;1.83;;;;;;;;;;4935924;28;93087;-76
2024/04/03 00:16:52;;;;;;;4.28;1.50;;;;;;;;;;4949717;28;93048;-76
2024/04/03 00:19:18;;;;;;;3.75;1.60;;;;;;;;;;4949829;28;92902;-76
2024/04/03 00:21:45;;;;;;;4.35;1.40;;;;;;;;;;4948975;28;92542;-76
2024/04/03 00:24:11;;;;;;;5.00;1.50;;;;;;;;;;4949454;28;92495;-76
2024/04/03 00:26:36;;;;;;;4.43;1.30;;;;;;;;;;4927918;28;93895;-77
2024/04/03 00:29:02;;;;;;;4.82;1.73;;;;;;;;;;4933789;28;95625;-76
2024/04/03 00:31:27;;;;;;;3.83;1.40;;;;;;;;;;4948884;28;92716;-76
2024/04/03 00:33:53;;;;;;;4.50;1.60;;;;;;;;;;4952060;28;92709;-76
2024/04/03 00:36:18;;;;;;;3.22;1.17;;;;;;;;;;4949125;28;92515;-77
2024/04/03 00:38:44;;;;;;;4.60;1.70;;;;;;;;;;4948707;28;93061;-77
2024/04/03 00:41:09;;;;;;;4.35;1.70;;;;;;;;;;4947975;28;93913;-76
2024/04/03 00:43:35;;;;;;;5.50;1.83;;;;;;;;;;4948728;28;93030;-76
2024/04/03 00:46:01;;;;;;;5.57;1.80;;;;;;;;;;4949425;28;92757;-76
2024/04/03 00:48:29;;;;;;;4.80;1.73;;;;;;;;;;4949111;28;93156;-77
2024/04/03 00:50:55;;;;;;;5.15;1.40;;;;;;;;;;4949175;28;93050;-76
2024/04/03 00:53:22;;;;;;;4.15;1.40;;;;;;;;;;4947763;28;95084;-76
2024/04/03 00:55:47;;;;;;;5.65;1.60;;;;;;;;;;4951538;28;93264;-77
2024/04/03 00:58:13;;;;;;;5.28;1.92;;;;;;;;;;4949967;28;92661;-77
2024/04/03 01:00:38;;;;;;;4.50;1.63;;;;;;;;;;4950474;28;93311;-76
2024/04/03 01:03:05;;;;;;;4.55;1.60;;;;;;;;;;4952381;28;93188;-76
2024/04/03 01:05:30;;;;;;;4.03;1.50;;;;;;;;;;4951712;28;93199;-76
2024/04/03 01:07:56;;;;;;;5.50;1.90;;;;;;;;;;4952227;28;93227;-76
2024/04/03 01:10:22;;;;;;;4.65;1.55;;;;;;;;;;4955559;28;92152;-75
2024/04/03 01:12:47;;;;;;;3.58;1.60;;;;;;;;;;4953987;28;92895;-76
2024/04/03 01:15:13;;;;;;;3.75;1.40;;;;;;;;;;4949863;28;93111;-77
2024/04/03 01:17:38;;;;;;;5.05;1.50;;;;;;;;;;4949835;28;95366;-76
2024/04/03 01:20:06;;;;;;;3.78;1.60;;;;;;;;;;4948326;28;92961;-76
2024/04/03 01:22:32;;;;;;;4.45;1.85;;;;;;;;;;4948773;28;92603;-76
2024/04/03 01:24:58;;;;;;;5.82;2.05;;;;;;;;;;4944609;28;92497;-76
2024/04/03 01:27:24;;;;;;;3.88;1.30;;;;;;;;;;4942040;28;93274;-77
2024/04/03 01:29:49;;;;;;;4.28;1.40;;;;;;;;;;4931640;28;92933;-76
2024/04/03 01:32:15;;;;;;;4.32;1.60;;;;;;;;;;4947993;28;93818;-76
2024/04/03 01:34:40;;;;;;;4.68;1.73;;;;;;;;;;4948426;28;92194;-76
2024/04/03 01:37:06;;;;;;;4.28;1.40;;;;;;;;;;4948507;28;93016;-76
2024/04/03 01:39:32;;;;;;;4.07;1.50;;;;;;;;;;4950919;28;92616;-76
2024/04/03 01:41:57;;;;;;;4.13;1.45;;;;;;;;;;4945993;28;95228;-76
2024/04/03 01:44:23;;;;;;;3.67;1.60;;;;;;;;;;4948422;28;93877;-76
2024/04/03 01:46:48;;;;;;;4.00;1.77;;;;;;;;;;4947887;28;93430;-76
2024/04/03 01:49:14;;;;;;;5.53;1.95;;;;;;;;;;4931365;28;92524;-77
2024/04/03 01:51:39;;;;;;;3.83;1.60;;;;;;;;;;4949843;28;94125;-76
2024/04/03 01:54:05;;;;;;;5.18;2.28;;;;;;;;;;4935010;28;92952;-76
2024/04/03 01:56:31;;;;;;;4.05;1.50;;;;;;;;;;4951153;28;92539;-76
2024/04/03 01:58:56;;;;;;;4.93;1.88;;;;;;;;;;4952399;28;92653;-77
2024/04/03 02:01:22;;;;;;;4.32;1.73;;;;;;;;;;4954106;28;93122;-77
2024/04/03 02:03:47;;;;;;;4.70;1.52;;;;;;;;;;4952655;28;92805;-76
2024/04/03 02:06:13;;;;;;;2.70;1.50;;;;;;;;;;4949612;28;95482;-77
2024/04/03 02:08:38;;;;;;;4.50;1.60;;;;;;;;;;4951504;28;92685;-77
2024/04/03 02:11:03;;;;;;;3.95;1.60;;;;;;;;;;4951072;28;92711;-77
2024/04/03 02:13:29;;;;;;;5.15;1.70;;;;;;;;;;4950377;28;92561;-76
2024/04/03 02:15:55;;;;;;;3.95;1.50;;;;;;;;;;4934445;28;92883;-77
2024/04/03 02:18:21;;;;;;;4.13;1.60;;;;;;;;;;4951611;28;93450;-76
2024/04/03 02:20:46;;;;;;;4.50;1.60;;;;;;;;;;4950581;28;92997;-76
2024/04/03 02:23:13;;;;;;;3.80;1.77;;;;;;;;;;4936292;28;92431;-76
2024/04/03 02:25:39;;;;;;;3.15;1.45;;;;;;;;;;4930703;28;93095;-76
2024/04/03 02:28:05;;;;;;;3.15;1.20;;;;;;;;;;4937252;28;92895;-76
2024/04/03 02:30:30;;;;;;;4.95;1.52;;;;;;;;;;4949350;28;95045;-76
2024/04/03 02:32:56;;;;;;;4.40;1.30;;;;;;;;;;4950362;28;93878;-76
2024/04/03 02:35:21;;;;;;;4.03;1.60;;;;;;;;;;4950576;28;92515;-77
2024/04/03 02:37:47;;;;;;;2.70;1.27;;;;;;;;;;4950926;28;93350;-76
2024/04/03 02:40:12;;;;;;;2.83;1.20;;;;;;;;;;4950797;28;93410;-77
2024/04/03 02:42:38;;;;;;;3.70;1.40;;;;;;;;;;4920969;28;92486;-76
2024/04/03 02:45:03;;;;;;;2.65;1.27;;;;;;;;;;4934074;28;94237;-76
2024/04/03 02:47:30;;;;;;;2.92;1.30;;;;;;;;;;4950683;28;92003;-76
2024/04/03 02:49:55;;;;;;;4.50;1.38;;;;;;;;;;4950027;28;92997;-76
2024/04/03 02:52:21;;;;;;;3.30;1.20;;;;;;;;;;4949948;28;92860;-76
2024/04/03 02:54:46;;;;;;;3.03;1.40;;;;;;;;;;4933115;28;95226;-76
2024/04/03 02:57:12;;;;;;;3.92;1.45;;;;;;;;;;4950611;28;94912;-76
2024/04/03 02:59:37;;;;;;;2.67;1.10;;;;;;;;;;4950098;28;93610;-76
2024/04/03 03:02:03;;;;;;;2.45;1.20;;;;;;;;;;4950419;28;92920;-76
2024/04/03 03:04:28;;;;;;;3.10;1.40;;;;;;;;;;4952987;28;93244;-76
2024/04/03 03:06:54;;;;;;;2.65;1.20;;;;;;;;;;4950631;28;92892;-77
2024/04/03 03:09:23;;;;;;;3.38;1.25;;;;;;;;;;4950764;28;93109;-76
2024/04/03 03:11:49;;;;;;;4.10;1.40;;;;;;;;;;4950350;28;92529;-76
2024/04/03 03:14:14;;;;;;;3.20;1.38;;;;;;;;;;4950916;28;92941;-76
2024/04/03 03:16:40;;;;;;;3.85;1.40;;;;;;;;;;4950248;28;94048;-76
2024/04/03 03:19:05;;;;;;;3.15;1.30;;;;;;;;;;4948032;28;95636;-76
2024/04/03 03:21:31;;;;;;;3.70;1.20;;;;;;;;;;4949428;28;92883;-77
2024/04/03 03:23:56;;;;;;;3.15;1.00;;;;;;;;;;4950474;28;92771;-76
2024/04/03 03:26:22;;;;;;;3.05;1.40;;;;;;;;;;4952781;28;94033;-76
2024/04/03 03:28:47;;;;;;;2.33;1.25;;;;;;;;;;4950403;28;92980;-76
2024/04/03 03:31:13;;;;;;;3.05;1.20;;;;;;;;;;4949930;28;93487;-77
2024/04/03 03:33:38;;;;;;;3.35;1.00;;;;;;;;;;4949785;28;92927;-77
2024/04/03 03:36:04;;;;;;;4.15;1.50;;;;;;;;;;4933956;28;92993;-77
2024/04/03 03:38:29;;;;;;;2.53;1.00;;;;;;;;;;4949944;28;93081;-77
2024/04/03 03:40:55;;;;;;;2.38;1.20;;;;;;;;;;4949612;28;92856;-76
2024/04/03 03:43:21;;;;;;;3.17;1.10;;;;;;;;;;4948547;28;95139;-76
2024/04/03 03:45:47;;;;;;;3.72;1.33;;;;;;;;;;4949440;28;92414;-76
2024/04/03 03:48:13;;;;;;;2.10;1.10;;;;;;;;;;4952964;28;92645;-77
2024/04/03 03:53:25;;;;;;;3.00;1.10;;;;;;;;;;4933811;28;92449;-75
2024/04/03 03:55:51;;;;;;;3.08;1.20;;;;;;;;;;4949078;28;92885;-75
2024/04/03 03:58:17;;;;;;;2.80;1.13;;;;;;;;;;4950325;28;93140;-75
2024/04/03 04:00:42;;;;;;;2.88;1.05;;;;;;;;;;4950389;28;92041;-77
2024/04/03 04:03:08;;;;;;;2.85;1.00;;;;;;;;;;4950053;28;92838;-75
2024/04/03 04:05:35;;;;;;;2.40;1.10;;;;;;;;;;4949674;28;93275;-76
2024/04/03 04:08:01;;;;;;;2.33;1.00;;;;;;;;;;4948268;28;95394;-76
2024/04/03 04:10:27;;;;;;;2.53;1.33;;;;;;;;;;4953026;28;95096;-76
2024/04/03 04:12:53;;;;;;;2.67;1.05;;;;;;;;;;4949158;28;92540;-76
2024/04/03 04:15:19;;;;;;;2.30;1.00;;;;;;;;;;4949445;28;93109;-76
2024/04/03 04:17:45;;;;;;;1.85;1.10;;;;;;;;;;4948805;28;93617;-76
2024/04/03 04:20:10;;;;;;;3.60;1.08;;;;;;;;;;4949603;28;92708;-75
2024/04/03 04:22:36;;;;;;;3.05;1.17;;;;;;;;;;4933075;28;93949;-75
2024/04/03 04:25:02;;;;;;;2.42;1.10;;;;;;;;;;4948922;28;92310;-76
2024/04/03 04:27:28;;;;;;;2.40;1.08;;;;;;;;;;4948815;28;92855;-76
2024/04/03 04:29:54;;;;;;;2.72;0.80;;;;;;;;;;4935821;28;94257;-76
2024/04/03 04:32:20;;;;;;;2.25;0.90;;;;;;;;;;4949790;28;95265;-76
2024/04/03 04:34:45;;;;;;;3.85;1.25;;;;;;;;;;4932449;28;95816;-76
2024/04/03 04:37:11;;;;;;;2.65;1.10;;;;;;;;;;4948830;28;93195;-76
2024/04/03 04:39:36;;;;;;;2.45;1.00;;;;;;;;;;4949042;28;93482;-76
2024/04/03 04:42:02;;;;;;;2.08;1.20;;;;;;;;;;4948706;28;92708;-76
2024/04/03 04:44:28;;;;;;;2.92;1.10;;;;;;;;;;4949302;28;93488;-76
2024/04/03 04:46:54;;;;;;;2.50;1.10;;;;;;;;;;4949012;28;92982;-76
2024/04/03 04:49:20;;;;;;;2.80;1.20;;;;;;;;;;4949283;28;93872;-75
2024/04/03 04:51:45;;;;;;;2.50;1.05;;;;;;;;;;4950481;28;93113;-76
2024/04/03 04:54:12;;;;;;;2.03;1.10;;;;;;;;;;4949238;28;93555;-75
2024/04/03 04:56:37;;;;;;;1.65;0.80;;;;;;;;;;4930698;28;98477;-75
2024/04/03 04:59:03;;;;;;;2.53;1.10;;;;;;;;;;4949002;28;92544;-75
2024/04/03 05:01:33;;;;;;;4.07;1.30;;;;;;;;;;4947806;28;92756;-75
2024/04/03 05:03:59;;;;;;;2.58;1.15;;;;;;;;;;4948347;28;92989;-76
2024/04/03 05:06:24;;;;;;;1.88;0.90;;;;;;;;;;4948886;28;92864;-75
2024/04/03 05:08:50;;;;;;;3.17;1.30;;;;;;;;;;4949231;28;93052;-75
2024/04/03 05:11:15;;;;;;;2.90;0.90;;;;;;;;;;4948028;28;93171;-75
2024/04/03 05:13:41;;;;;;;1.83;1.10;;;;;;;;;;4951492;28;99302;-75
2024/04/03 05:16:11;;;;;;;2.08;1.02;;;;;;;;;;4948712;28;93101;-76
2024/04/03 05:18:37;;;;;;;2.42;1.00;;;;;;;;;;4949141;28;92725;-76
2024/04/03 05:21:02;;;;;;;4.13;1.38;;;;;;;;;;4947256;28;95374;-77
2024/04/03 05:23:29;;;;;;;2.80;1.20;;;;;;;;;;4948509;28;93032;-77
2024/04/03 05:25:58;;;;;;;2.63;1.13;;;;;;;;;;4947899;28;92672;-77
2024/04/03 05:28:28;;;;;;;3.65;1.20;;;;;;;;;;4949374;28;93260;-77
2024/04/03 05:30:54;;;;;;;3.00;1.20;;;;;;;;;;4948063;28;94152;-77
2024/04/03 05:33:20;;;;;;;1.90;1.05;;;;;;;;;;4949125;28;92946;-77
2024/04/03 05:35:55;;;;;;;4.07;1.38;;;;;;;;;;4951830;28;95973;-77
2024/04/03 05:38:20;;;;;;;2.85;1.20;;;;;;;;;;4952391;28;91992;-77
2024/04/03 05:40:47;;;;;;;2.67;1.00;;;;;;;;;;4951321;28;92926;-77
2024/04/03 05:43:12;;;;;;;2.05;1.15;;;;;;;;;;4952236;28;92733;-77
2024/04/03 05:45:38;;;;;;;2.42;1.02;;;;;;;;;;4951097;28;94937;-77
2024/04/03 05:48:04;;;;;;;2.10;0.90;;;;;;;;;;4950491;28;95104;-77
2024/04/03 05:50:30;;;;;;;1.85;1.23;;;;;;;;;;4950897;28;93469;-77
2024/04/03 05:52:55;;;;;;;3.22;1.30;;;;;;;;;;4947880;28;92891;-77
2024/04/03 05:55:21;;;;;;;2.88;1.10;;;;;;;;;;4947432;28;92740;-77
2024/04/03 05:57:47;;;;;;;3.05;1.00;;;;;;;;;;4950394;28;93073;-77
2024/04/03 06:00:13;;;;;;;3.85;1.25;;;;;;;;;;4947799;28;92662;-78
2024/04/03 06:02:41;;;;;;;3.40;1.20;;;;;;;;;;4948125;28;92387;-77
2024/04/03 06:05:07;;;;;;;1.95;1.08;;;;;;;;;;4947830;28;93153;-77
2024/04/03 06:07:33;;;;;;;1.75;1.08;;;;;;;;;;4946822;28;92964;-77
2024/04/03 06:09:59;;;;;;;3.00;1.05;;;;;;;;;;4945659;28;95441;-77
2024/04/03 06:12:25;;;;;;;1.83;1.02;;;;;;;;;;4931537;28;92669;-77
2024/04/03 06:14:50;;;;;;;4.03;1.00;;;;;;;;;;4947362;28;92840;-76
2024/04/03 06:17:16;;;;;;;2.17;0.90;;;;;;;;;;4943286;28;92974;-77
2024/04/03 06:19:41;;;;;;;2.28;1.20;;;;;;;;;;4949957;28;92483;-77
2024/04/03 06:22:07;;;;;;;2.88;1.20;;;;;;;;;;4947405;28;93192;-77
2024/04/03 06:24:32;;;;;;;2.47;1.20;;;;;;;;;;4947950;28;92752;-77
2024/04/03 06:26:58;;;;;;;1.45;0.82;;;;;;;;;;4931536;28;92783;-77
2024/04/03 06:29:23;;;;;;;2.28;1.05;;;;;;;;;;4947052;28;94185;-77
2024/04/03 06:31:51;;;;;;;2.67;1.00;;;;;;;;;;4946073;28;92712;-77
2024/04/03 06:34:16;;;;;;;2.38;1.27;;;;;;;;;;4945791;28;95131;-77
2024/04/03 06:36:41;;;;;;;2.20;1.00;;;;;;;;;;4948047;28;93264;-77
2024/04/03 06:39:07;;;;;;;2.38;1.00;;;;;;;;;;4953996;28;92534;-77
2024/04/03 06:41:33;;;;;;;1.85;0.85;;;;;;;;;;4949420;28;93544;-77
2024/04/03 06:43:59;;;;;;;3.13;1.20;;;;;;;;;;4950794;28;92658;-77
2024/04/03 06:46:24;;;;;;;1.80;0.95;;;;;;;;;;4950838;28;92794;-77
2024/04/03 06:48:50;;;;;;;1.88;0.90;;;;;;;;;;4950317;28;93199;-76
2024/04/03 06:51:15;;;;;;;2.05;1.15;;;;;;;;;;4950606;28;92133;-76
2024/04/03 06:53:41;;;;;;;3.42;1.05;;;;;;;;;;4933086;28;94949;-77
2024/04/03 06:56:06;;;;;;;1.52;1.02;;;;;;;;;;4933582;28;94292;-76
2024/04/03 06:58:36;;;;;;;3.70;1.10;;;;;;;;;;4932312;28;95193;-76
2024/04/03 07:01:02;;;;;;;3.35;1.27;;;;;;;;;;4953012;28;95080;-77
2024/04/03 07:03:29;;;;;;;2.28;0.80;;;;;;;;;;4949726;28;92516;-77
2024/04/03 07:05:55;;;;;;;2.50;0.90;;;;;;;;;;4949697;28;95347;-76
2024/04/03 07:08:21;;;;;;;2.47;1.10;;;;;;;;;;4949734;28;93287;-76
2024/04/03 07:10:46;;;;;;;2.13;1.02;;;;;;;;;;4950154;28;92655;-76
2024/04/03 07:13:12;;;;;;;2.25;1.10;;;;;;;;;;4947631;28;92676;-76
2024/04/03 07:15:38;;;;;;;2.13;1.20;;;;;;;;;;4949788;28;92284;-76
2024/04/03 07:18:03;;;;;;;2.40;0.82;;;;;;;;;;4950485;28;93472;-76
2024/04/03 07:20:29;;;;;;;2.33;0.90;;;;;;;;;;4933919;28;95465;-75
2024/04/03 07:22:56;;;;;;;3.00;1.13;;;;;;;;;;4951071;28;95414;-75
2024/04/03 07:25:22;;;;;;;4.43;1.48;;;;;;;;;;4933614;28;95023;-76
2024/04/03 07:27:47;;;;;;;3.30;1.10;;;;;;;;;;4949046;28;93124;-74
2024/04/03 07:30:13;;;;;;;3.08;1.00;;;;;;;;;;4949741;28;92502;-77
2024/04/03 07:32:40;;;;;;;1.33;1.10;;;;;;;;;;4949658;28;92808;-77
2024/04/03 07:35:05;;;;;;;2.40;1.10;;;;;;;;;;4932834;28;93577;-77
2024/04/03 07:37:31;;;;;;;2.55;1.08;;;;;;;;;;4949029;28;100257;-76
2024/04/03 07:39:56;;;;;;;1.63;0.98;;;;;;;;;;4951201;28;91784;-76
2024/04/03 07:42:22;;;;;;;1.80;1.00;;;;;;;;;;4949726;28;93503;-77
2024/04/03 07:44:49;;;;;;;2.35;1.10;;;;;;;;;;4951249;28;92655;-75
2024/04/03 07:47:15;;;;;;;2.28;1.05;;;;;;;;;;4947707;28;96450;-77
2024/04/03 07:49:40;;;;;;;2.88;1.10;;;;;;;;;;4931847;28;92824;-77
2024/04/03 07:52:06;;;;;;;1.65;1.10;;;;;;;;;;4932827;28;93425;-77
2024/04/03 07:54:31;;;;;;;1.63;0.90;;;;;;;;;;4949948;28;94166;-77
2024/04/03 07:56:57;;;;;;;2.72;1.23;;;;;;;;;;4949692;28;92558;-77
2024/04/03 07:59:22;;;;;;;2.13;1.00;;;;;;;;;;4940597;28;93590;-77
2024/04/03 08:01:48;;;;;;;2.45;1.02;;;;;;;;;;4929280;28;93017;-77
2024/04/03 08:04:14;;;;;;;1.42;1.00;;;;;;;;;;4930458;28;92142;-77
2024/04/03 08:06:40;;;;;;;2.45;0.95;;;;;;;;;;4932650;28;92703;-77
2024/04/03 08:09:06;;;;;;;2.22;0.90;;;;;;;;;;4930229;28;93331;-77
2024/04/03 08:11:32;;;;;;;1.90;1.00;;;;;;;;;;4944614;28;95428;-76
2024/04/03 08:13:59;;;;;;;1.83;1.10;;;;;;;;;;4949417;28;93750;-77
2024/04/03 08:16:24;;;;;;;2.60;1.08;;;;;;;;;;4934706;28;92427;-77
2024/04/03 08:18:50;;;;;;;2.00;1.00;;;;;;;;;;4929513;28;93409;-77
2024/04/03 08:21:16;;;;;;;3.28;1.10;;;;;;;;;;4929314;28;93392;-77
2024/04/03 08:23:41;;;;;;;2.17;1.20;;;;;;;;;;4912703;28;92526;-77
2024/04/03 08:26:07;;;;;;;2.67;1.10;;;;;;;;;;4929544;28;93785;-77
2024/04/03 08:28:35;;;;;;;2.65;1.00;;;;;;;;;;4932795;28;92231;-77
2024/04/03 08:31:01;;;;;;;;;;;;;;;;;;4937364;28;93059;-77
2024/04/03 08:33:26;;;;;;;2.45;1.10;;;;;;;;;;4933611;28;94525;-76
2024/04/03 08:36:01;;;;;;;2.67;1.00;;;;;;;;;;4947122;28;95088;-77
2024/04/03 08:38:27;;;;;;;2.55;1.00;;;;;;;;;;4948826;28;95158;-77
2024/04/03 08:40:56;;;;;;;1.65;0.90;;;;;;;;;;4948739;28;93673;-76
2024/04/03 08:43:25;;;;;;;1.88;0.98;;;;;;;;;;4948777;28;92758;-77
2024/04/03 08:45:53;;;;;;;2.63;0.88;;;;;;;;;;4948128;28;92847;-77
2024/04/03 08:48:21;;;;;;;1.50;1.00;;;;;;;;;;4951541;28;93088;-77
2024/04/03 08:50:47;;;;;;;2.83;1.13;;;;;;;;;;4948581;28;93931;-77
2024/04/03 08:53:16;;;;;;;2.95;1.00;;;;;;;;;;4932731;28;93775;-77
2024/04/03 08:55:43;;;;;;;3.28;1.20;;;;;;;;;;4937297;28;92854;-77
2024/04/03 08:58:08;;;;;;;2.35;1.05;;;;;;;;;;4912692;28;95572;-77
2024/04/03 09:00:34;;;;;;;2.42;1.00;;;;;;;;;;4926376;28;95671;-77
2024/04/03 09:02:59;;;;;;;3.13;1.10;;;;;;;;;;4929202;28;92546;-77
2024/04/03 09:05:25;;;;;;;1.25;0.80;;;;;;;;;;4915391;28;93923;-77
2024/04/03 09:07:59;;;;;;;1.83;0.90;;;;;;;;;;4947027;28;93233;-77
2024/04/03 09:10:24;;;;;;;;;;;;;;;;;;4951648;28;92494;-77
2024/04/03 09:12:49;;;;;;;1.67;1.20;;;;;;;;;;4949731;28;92918;-77
2024/04/03 09:15:15;;;;;;;2.28;1.20;;;;;;;;;;4931875;28;92823;-77
2024/04/03 09:17:40;;;;;;;1.23;1.00;;;;;;;;;;4947985;28;92904;-77
2024/04/03 09:20:06;;;;;;;1.35;0.98;;;;;;;;;;4947641;28;101150;-77
2024/04/03 09:22:32;;;;;;;1.40;0.73;;;;;;;;;;4948472;28;92644;-77
2024/04/03 09:24:57;;;;;;;2.40;1.02;;;;;;;;;;4930731;28;95525;-77
2024/04/03 09:27:23;;;;;;;1.77;0.88;;;;;;;;;;4948124;28;92411;-76
2024/04/03 09:29:54;;;;;;;2.05;1.02;;;;;;;;;;4947227;28;92606;-77
2024/04/03 09:32:19;;;;;;;1.73;0.90;;;;;;;;;;4951137;28;92785;-77
2024/04/03 09:34:46;;;;;;;2.58;1.15;;;;;;;;;;4948019;28;92938;-77
2024/04/03 09:37:12;;;;;;;2.38;1.00;;;;;;;;;;4947890;28;92776;-77
2024/04/03 09:39:37;;;;;;;1.90;0.90;;;;;;;;;;4947765;28;93106;-77
2024/04/03 09:42:04;;;;;;;2.53;0.90;;;;;;;;;;4948092;28;92086;-75
2024/04/03 09:44:30;;;;;;;1.50;0.90;;;;;;;;;;4948008;28;92579;-77
2024/04/03 09:46:59;;;;;;;2.38;0.90;;;;;;;;;;4947400;28;94026;-77
2024/04/03 09:49:29;;;;;;;2.13;0.80;;;;;;;;;;4946403;28;95160;-77
2024/04/03 09:51:55;;;;;;;2.22;1.00;;;;;;;;;;4926660;28;102087;-77
2024/04/03 09:54:22;;;;;;;1.33;0.90;;;;;;;;;;4938447;28;93364;-77
2024/04/03 09:56:48;;;;;;;2.83;1.05;;;;;;;;;;4947809;28;92768;-77
2024/04/03 09:59:14;;;;;;;2.38;0.82;;;;;;;;;;4947912;28;93076;-77
2024/04/03 10:01:40;;;;;;;1.70;0.90;;;;;;;;;;4946856;28;92630;-77
2024/04/03 10:04:08;;;;;;;2.17;0.90;;;;;;;;;;4947916;28;92728;-77
2024/04/03 10:06:41;;;;;;;2.00;0.80;;;;;;;;;;4948763;28;93176;-77
2024/04/03 10:09:22;;;;;;;2.15;0.80;;;;;;;;;;4950128;28;92905;-77
2024/04/03 10:11:48;;;;;;;2.70;1.00;;;;;;;;;;4951448;28;93264;-77
2024/04/03 10:14:18;;;;;;;2.75;1.00;;;;;;;;;;4933225;28;97556;-77
2024/04/03 10:16:43;;;;;;;2.05;0.90;;;;;;;;;;4937915;28;93362;-77
2024/04/03 10:19:09;;;;;;;2.60;1.13;;;;;;;;;;4916637;28;92668;-77
2024/04/03 10:21:35;;;;;;;1.90;1.17;;;;;;;;;;4931359;28;93325;-77
2024/04/03 10:24:01;;;;;;;2.00;0.95;;;;;;;;;;4931071;28;94154;-77
2024/04/03 10:26:27;;;;;;;3.00;1.40;;;;;;;;;;4931559;28;93105;-77
2024/04/03 10:28:52;;;;;;;1.80;0.90;;;;;;;;;;4931786;28;92813;-77
2024/04/03 10:31:19;;;;;;;1.65;1.00;;;;;;;;;;4949029;28;92764;-77
2024/04/03 10:33:50;;;;;;;2.28;0.98;;;;;;;;;;4949976;28;93256;-77
2024/04/03 10:36:16;;;;;;;2.25;1.10;;;;;;;;;;4950348;28;92951;-75
2024/04/03 10:38:42;;;;;;;2.13;1.00;;;;;;;;;;4951959;28;95423;-75
2024/04/03 10:41:08;;;;;;;1.30;1.00;;;;;;;;;;4933516;28;92737;-75
2024/04/03 10:43:33;;;;;;;2.10;1.20;;;;;;;;;;4934145;28;93604;-75
2024/04/03 10:45:59;;;;;;;1.92;1.10;;;;;;;;;;4950070;28;93089;-73
2024/04/03 10:48:25;;;;;;;2.58;1.02;;;;;;;;;;4933528;28;92948;-74
2024/04/03 10:50:51;;;;;;;2.03;1.02;;;;;;;;;;4933594;28;95841;-74
2024/04/03 10:53:17;;;;;;;2.15;1.60;;;;;;;;;;4950003;28;99357;-75
2024/04/03 10:55:45;;;;;;;1.05;0.90;;;;;;;;;;4949955;28;92140;-74
2024/04/03 10:58:10;;;;;;;1.83;1.00;;;;;;;;;;4952473;28;95798;-74
2024/04/03 11:00:37;;;;;;;1.60;0.93;;;;;;;;;;4948306;28;93034;-74
2024/04/03 11:03:07;;;;;;;3.53;1.20;;;;;;;;;;4947241;28;94999;-75
2024/04/03 11:05:34;;;;;;;1.52;0.98;;;;;;;;;;4948116;28;93589;-75
2024/04/03 11:08:01;;;;;;;2.22;0.90;;;;;;;;;;4949581;28;92981;-74
2024/04/03 11:10:27;;;;;;;;;;;;;;;;;;4932864;28;94985;-74
2024/04/03 11:13:06;;;;;;;1.85;1.00;;;;;;;;;;4950392;28;92740;-74
2024/04/03 11:15:34;;;;;;;2.67;1.08;;;;;;;;;;4948650;28;92562;-76
2024/04/03 11:17:59;;;;;;;2.72;1.15;;;;;;;;;;4949269;28;93099;-75
2024/04/03 11:20:30;;;;;;;1.95;1.00;;;;;;;;;;4952786;28;93671;-75
2024/04/03 11:22:58;;;;;;;2.08;1.00;;;;;;;;;;4949990;28;92822;-75
2024/04/03 11:25:34;;;;;;;1.65;0.70;;;;;;;;;;4949798;28;93130;-74
2024/04/03 11:28:03;;;;;;;2.00;1.05;;;;;;;;;;4947987;28;95323;-74
2024/04/03 11:30:29;;;;;;;2.28;1.20;;;;;;;;;;4949482;28;95788;-74
2024/04/03 11:32:56;;;;;;;1.20;0.93;;;;;;;;;;4933382;28;93190;-74
2024/04/03 11:35:22;;;;;;;1.23;0.90;;;;;;;;;;4950024;28;93018;-74
2024/04/03 11:37:47;;;;;;;2.05;1.00;;;;;;;;;;4949473;28;92623;-74
2024/04/03 11:40:14;;;;;;;2.13;0.90;;;;;;;;;;4949664;28;93771;-74
2024/04/03 11:42:40;;;;;;;1.80;1.00;;;;;;;;;;4952573;28;92601;-74
2024/04/03 11:45:05;;;;;;;2.17;0.90;;;;;;;;;;4949715;28;92760;-75
2024/04/03 11:47:32;;;;;;;1.98;0.85;;;;;;;;;;4948997;28;93986;-75
2024/04/03 11:49:59;;;;;;;1.58;1.00;;;;;;;;;;4949528;28;92772;-75
2024/04/03 11:52:25;;;;;;;1.77;0.90;;;;;;;;;;4931567;28;95766;-75
2024/04/03 11:54:50;;;;;;;2.25;1.00;;;;;;;;;;4949009;28;93675;-75
2024/04/03 11:57:16;;;;;;;1.90;1.13;;;;;;;;;;4949374;28;93028;-75
2024/04/03 11:59:41;;;;;;;2.53;1.20;;;;;;;;;;4949016;28;94052;-75
2024/04/03 12:02:07;;;;;;;1.95;0.88;;;;;;;;;;4949761;28;92656;-74
2024/04/03 12:04:33;;;;;;;1.50;0.88;;;;;;;;;;4952338;28;93404;-75
2024/04/03 12:06:58;;;;;;;1.80;1.10;;;;;;;;;;4949428;28;92880;-74
2024/04/03 12:09:24;;;;;;;1.60;0.80;;;;;;;;;;4946640;28;93274;-74
2024/04/03 12:11:50;;;;;;;2.67;1.27;;;;;;;;;;4928417;28;93196;-74
2024/04/03 12:14:16;;;;;;;3.40;1.00;;;;;;;;;;4929765;28;92804;-75
2024/04/03 12:16:41;;;;;;;1.75;0.95;;;;;;;;;;4927667;28;102136;-75
2024/04/03 12:19:26;;;;;;;1.17;0.90;;;;;;;;;;4929491;28;93902;-75
2024/04/03 12:21:53;;;;;;;1.60;0.90;;;;;;;;;;4929236;28;93212;-74
2024/04/03 12:24:19;;;;;;;2.17;1.10;;;;;;;;;;4934580;28;92735;-75
2024/04/03 12:26:45;;;;;;;1.05;0.75;;;;;;;;;;4931980;28;93209;-74
2024/04/03 12:29:12;;;;;;;1.73;1.00;;;;;;;;;;4929574;28;92793;-75
2024/04/03 12:31:37;;;;;;;2.05;1.10;;;;;;;;;;4930443;28;93053;-74
2024/04/03 12:34:06;;;;;;;1.25;0.80;;;;;;;;;;4948540;28;92130;-74
2024/04/03 12:36:32;;;;;;;2.13;1.17;;;;;;;;;;4949051;28;92969;-74
2024/04/03 12:38:57;;;;;;;1.95;0.80;;;;;;;;;;4932270;28;96040;-74
2024/04/03 12:41:23;;;;;;;2.58;1.00;;;;;;;;;;4947062;28;95621;-74
2024/04/03 12:43:48;;;;;;;1.35;0.90;;;;;;;;;;4948521;28;95106;-74
2024/04/03 12:46:14;;;;;;;3.97;1.98;;;;;;;;;;4948157;28;93141;-74
2024/04/03 12:48:40;;;;;;;3.13;1.50;;;;;;;;;;4951400;28;92646;-74
2024/04/03 12:51:05;;;;;;;1.80;1.13;;;;;;;;;;4947846;28;93133;-74
2024/04/03 12:53:31;;;;;;;2.80;1.20;;;;;;;;;;4947612;28;92912;-74
2024/04/03 12:55:57;;;;;;;1.75;1.20;;;;;;;;;;4948071;28;93140;-74
2024/04/03 12:58:22;;;;;;;1.58;0.90;;;;;;;;;;4948869;28;92337;-75
2024/04/03 13:00:48;;;;;;;1.40;1.00;;;;;;;;;;4931631;28;92958;-74
2024/04/03 13:03:13;;;;;;;2.35;1.10;;;;;;;;;;4932147;28;95126;-73
2024/04/03 13:05:39;;;;;;;2.03;1.20;;;;;;;;;;4945736;28;95366;-74
2024/04/03 13:08:05;;;;;;;2.00;1.38;;;;;;;;;;4951302;28;92773;-75
2024/04/03 13:10:32;;;;;;;1.20;1.00;;;;;;;;;;4948044;28;93219;-74
2024/04/03 13:13:01;;;;;;;1.70;1.20;;;;;;;;;;4948920;28;92674;-74
2024/04/03 13:15:26;;;;;;;2.25;1.10;;;;;;;;;;4947869;28;92778;-75
2024/04/03 13:17:52;;;;;;;2.50;1.10;;;;;;;;;;4948302;28;93080;-75
2024/04/03 13:20:17;;;;;;;1.80;1.40;;;;;;;;;;4940095;28;92817;-75
2024/04/03 13:22:43;;;;;;;1.80;1.30;;;;;;;;;;4929187;28;94048;-75
2024/04/03 13:25:09;;;;;;;1.90;1.10;;;;;;;;;;4928376;28;93325;-75
2024/04/03 13:27:35;;;;;;;2.55;1.10;;;;;;;;;;4928187;28;92948;-75
2024/04/03 13:30:01;;;;;;;1.35;1.10;;;;;;;;;;4933740;28;95505;-75
2024/04/03 13:32:26;;;;;;;2.65;1.30;;;;;;;;;;4931824;28;92672;-75
2024/04/03 13:34:52;;;;;;;2.85;1.10;;;;;;;;;;4947936;28;95868;-75
2024/04/03 13:37:17;;;;;;;1.75;1.10;;;;;;;;;;4947850;28;92954;-75
2024/04/03 13:39:43;;;;;;;1.95;1.10;;;;;;;;;;4947357;28;92951;-75
2024/04/03 13:42:09;;;;;;;2.50;1.10;;;;;;;;;;4947390;28;92792;-75
2024/04/03 13:44:35;;;;;;;1.67;1.15;;;;;;;;;;4947973;28;94375;-76
2024/04/03 13:47:00;;;;;;;1.92;1.27;;;;;;;;;;4954099;28;92122;-75
2024/04/03 13:49:26;;;;;;;2.85;1.23;;;;;;;;;;4937935;28;94091;-76
2024/04/03 13:51:52;;;;;;;1.67;1.00;;;;;;;;;;4957150;28;97715;-73
2024/04/03 13:54:17;;;;;;;1.67;1.10;;;;;;;;;;4953069;28;94994;-76
2024/04/03 13:56:43;;;;;;;1.65;1.10;;;;;;;;;;4954202;28;93082;-75
2024/04/03 13:59:09;;;;;;;2.15;1.20;;;;;;;;;;4954681;28;92484;-74
2024/04/03 14:01:35;;;;;;;1.92;1.10;;;;;;;;;;4953483;28;92662;-75
2024/04/03 14:04:00;;;;;;;1.88;1.00;;;;;;;;;;4938595;28;93949;-76
2024/04/03 14:06:26;;;;;;;1.05;0.90;;;;;;;;;;4953880;28;92690;-76
2024/04/03 14:08:52;;;;;;;2.08;1.00;;;;;;;;;;4954466;28;92903;-76
2024/04/03 14:11:21;;;;;;;2.03;1.20;;;;;;;;;;4954567;28;92614;-75
2024/04/03 14:13:48;;;;;;;1.65;1.08;;;;;;;;;;4956711;28;92504;-75
2024/04/03 14:16:14;;;;;;;1.70;1.10;;;;;;;;;;4952821;28;93439;-76
2024/04/03 14:18:40;;;;;;;2.47;1.20;;;;;;;;;;4952019;28;95208;-76
2024/04/03 14:21:05;;;;;;;2.13;1.23;;;;;;;;;;4940057;28;95280;-76
2024/04/03 14:23:31;;;;;;;2.25;1.27;;;;;;;;;;4933951;28;93260;-75
2024/04/03 14:25:57;;;;;;;2.50;1.17;;;;;;;;;;4940350;28;92615;-75
2024/04/03 14:28:22;;;;;;;1.40;1.05;;;;;;;;;;4953453;28;92979;-75
2024/04/03 14:30:48;;;;;;;1.67;1.17;;;;;;;;;;4936003;28;96630;-75
2024/04/03 14:33:14;;;;;;;2.88;1.20;;;;;;;;;;4953165;28;92982;-75
2024/04/03 14:35:40;;;;;;;2.13;1.25;;;;;;;;;;4955368;28;93101;-76
2024/04/03 14:38:05;;;;;;;2.08;1.10;;;;;;;;;;4953440;28;93248;-76
2024/04/03 14:40:31;;;;;;;2.13;1.08;;;;;;;;;;4953514;28;92980;-76